createdAt,value
2023-04-13T00:04:42.853Z,100.00
2023-04-13T00:23:20.944Z,100.00
2023-04-13T00:28:24.392Z,100.00
2023-04-13T00:33:27.827Z,100.00
2023-04-13T00:38:31.966Z,100.00
2023-04-13T00:43:34.700Z,100.00
2023-04-13T00:48:37.624Z,100.00
2023-04-13T00:53:41.801Z,100.00
2023-04-13T00:58:45.503Z,100.00
2023-04-13T01:03:49.709Z,100.00
2023-04-13T01:08:58.848Z,100.00
2023-04-13T01:14:08.857Z,100.00
2023-04-13T01:19:21.844Z,100.00
2023-04-13T01:24:47.147Z,100.00
2023-04-13T01:29:52.029Z,100.00
2023-04-13T01:34:55.554Z,100.00
2023-04-13T01:39:58.400Z,100.00
2023-04-13T01:45:13.807Z,100.00
2023-04-13T01:50:25.892Z,100.00
2023-04-13T01:55:46.421Z,100.00
2023-04-13T02:00:51.005Z,100.00
2023-04-13T02:05:54.481Z,100.00
2023-04-13T02:10:57.967Z,100.00
2023-04-13T02:16:03.812Z,100.00
2023-04-13T02:21:09.332Z,100.00
2023-04-13T02:26:14.185Z,100.00
2023-04-13T02:31:19.913Z,100.00
2023-04-13T02:36:24.870Z,100.00
2023-04-13T02:41:42.018Z,100.00
2023-04-13T02:46:47.702Z,100.00
2023-04-13T02:51:53.062Z,100.00
2023-04-13T02:57:05.054Z,100.00
2023-04-13T03:02:12.612Z,100.00
2023-04-13T03:07:17.230Z,100.00
2023-04-13T03:12:24.156Z,100.00
2023-04-13T03:17:29.954Z,100.00
2023-04-13T03:22:33.013Z,100.00
2023-04-13T03:27:38.853Z,100.00
2023-04-13T03:32:43.811Z,100.00
2023-04-13T03:37:46.801Z,100.00
2023-04-13T03:43:00.761Z,100.00
2023-04-13T03:48:08.502Z,100.00
2023-04-13T03:53:11.709Z,100.00
2023-04-13T03:58:17.122Z,100.00
2023-04-13T04:03:22.319Z,100.00
2023-04-13T04:08:39.020Z,100.00
2023-04-13T04:13:48.305Z,100.00
2023-04-13T04:18:52.508Z,100.00
2023-04-13T04:23:57.894Z,100.00
2023-04-13T04:29:02.266Z,100.00
2023-04-13T04:34:10.530Z,100.00
2023-04-13T04:39:14.992Z,100.00
2023-04-13T04:44:31.278Z,100.00
2023-04-13T04:49:40.970Z,100.00
2023-04-13T04:54:44.379Z,100.00
2023-04-13T04:59:49.217Z,100.00
2023-04-13T05:04:55.151Z,100.00
2023-04-13T05:09:59.145Z,100.00
2023-04-13T05:15:02.264Z,100.00
2023-04-13T05:20:09.256Z,100.00
2023-04-13T05:25:39.531Z,100.00
2023-04-13T05:30:50.906Z,100.00
2023-04-13T05:35:56.783Z,100.00
2023-04-13T05:40:59.709Z,100.00
2023-04-13T05:46:03.006Z,100.00
2023-04-13T05:51:08.250Z,100.00
2023-04-13T05:56:11.905Z,100.00
2023-04-13T06:01:16.776Z,100.00
2023-04-13T06:06:21.469Z,100.00
2023-04-13T06:11:26.276Z,100.00
2023-04-13T06:16:30.086Z,100.00
2023-04-13T06:21:34.343Z,100.00
2023-04-13T06:26:42.691Z,100.00
2023-04-13T06:31:46.549Z,100.00
2023-04-13T06:36:54.857Z,100.00
2023-04-13T06:42:02.357Z,100.00
2023-04-13T06:47:27.455Z,100.00
2023-04-13T06:52:33.379Z,100.00
2023-04-13T06:57:37.337Z,100.00
2023-04-13T07:02:45.085Z,100.00
2023-04-13T07:07:51.734Z,100.00
2023-04-13T07:12:55.673Z,100.00
2023-04-13T07:18:06.634Z,100.00
2023-04-13T07:23:12.544Z,100.00
2023-04-13T07:28:15.597Z,100.00
2023-04-13T07:33:18.982Z,100.00
2023-04-13T07:38:23.482Z,100.00
2023-04-13T07:43:26.663Z,100.00
2023-04-13T07:48:32.819Z,100.00
2023-04-13T07:53:42.609Z,100.00
2023-04-13T07:58:46.183Z,100.00
2023-04-13T08:03:49.460Z,100.00
2023-04-13T08:08:58.352Z,100.00
2023-04-13T08:14:01.570Z,100.00
2023-04-13T08:19:06.640Z,100.00
2023-04-13T08:24:14.904Z,100.00
2023-04-13T08:29:17.920Z,100.00
2023-04-13T08:34:23.391Z,100.00
2023-04-13T08:39:29.268Z,100.00
2023-04-13T08:44:34.991Z,100.00
2023-04-13T08:49:40.656Z,100.00
2023-04-13T08:55:09.244Z,100.00
2023-04-13T09:00:17.895Z,100.00
2023-04-13T09:05:23.936Z,98.58
2023-04-13T09:10:33.424Z,97.21
2023-04-13T09:15:36.455Z,100.00
2023-04-13T09:20:58.685Z,100.00
2023-04-13T09:26:09.907Z,100.00
2023-04-13T09:31:15.802Z,99.11
2023-04-13T09:36:20.756Z,93.05
2023-04-13T09:41:39.689Z,90.63
2023-04-13T09:46:46.550Z,90.17
2023-04-13T09:51:49.598Z,87.15
2023-04-13T09:56:56.489Z,89.64
2023-04-13T10:02:00.422Z,90.23
2023-04-13T10:07:04.975Z,85.91
2023-04-13T10:12:14.071Z,82.57
2023-04-13T10:17:37.417Z,83.13
2023-04-13T10:22:47.369Z,89.42
2023-04-13T10:27:59.524Z,94.91
2023-04-13T10:33:05.549Z,97.55
2023-04-13T10:38:09.677Z,95.99
2023-04-13T10:43:26.532Z,92.40
2023-04-13T10:48:30.165Z,90.73
2023-04-13T10:53:35.628Z,92.77
2023-04-13T10:58:39.789Z,84.89
2023-04-13T11:03:53.181Z,82.15
2023-04-13T11:09:07.365Z,78.01
2023-04-13T11:14:21.326Z,77.95
2023-04-13T11:19:24.222Z,78.37
2023-04-13T11:24:29.356Z,81.48
2023-04-13T11:29:33.542Z,79.34
2023-04-13T11:34:36.794Z,90.79
2023-04-13T11:39:41.825Z,100.00
2023-04-13T11:44:46.396Z,100.00
2023-04-13T11:49:50.498Z,100.00
2023-04-13T11:54:53.703Z,100.00
2023-04-13T11:59:58.688Z,100.00
2023-04-13T12:05:01.689Z,100.00
2023-04-13T12:10:06.593Z,100.00
2023-04-13T12:15:25.221Z,100.00
2023-04-13T12:20:37.557Z,100.00
2023-04-13T12:25:42.057Z,100.00
2023-04-13T12:30:49.058Z,100.00
2023-04-13T12:35:52.240Z,100.00
2023-04-13T12:40:58.587Z,100.00
2023-04-13T12:46:02.886Z,100.00
2023-04-13T12:51:06.337Z,100.00
2023-04-13T12:56:11.047Z,100.00
2023-04-13T13:01:15.665Z,100.00
2023-04-13T13:06:19.200Z,100.00
2023-04-13T13:11:22.675Z,100.00
2023-04-13T13:16:27.015Z,100.00
2023-04-13T13:21:30.690Z,100.00
2023-04-13T13:26:51.701Z,100.00
2023-04-13T13:31:58.544Z,100.00
2023-04-13T13:37:01.340Z,100.00
2023-04-13T13:42:04.628Z,97.48
2023-04-13T13:47:12.705Z,100.00
2023-04-13T13:52:19.144Z,100.00
2023-04-13T13:57:31.388Z,100.00
2023-04-13T14:02:35.768Z,100.00
2023-04-13T14:07:38.727Z,100.00
2023-04-13T14:12:44.727Z,100.00
2023-04-13T14:18:06.048Z,100.00
2023-04-13T14:23:12.980Z,100.00
2023-04-13T14:28:17.626Z,100.00
2023-04-13T14:33:24.610Z,98.71
2023-04-13T14:38:27.702Z,100.00
2023-04-13T14:43:31.232Z,100.00
2023-04-13T14:48:35.639Z,99.51
2023-04-13T14:53:38.701Z,100.00
2023-04-13T14:58:41.672Z,100.00
2023-04-13T15:03:47.316Z,100.00
2023-04-13T15:08:50.339Z,100.00
2023-04-13T15:13:53.561Z,90.82
2023-04-13T15:19:00.048Z,84.62
2023-04-13T15:24:03.752Z,87.70
2023-04-13T15:29:06.620Z,92.39
2023-04-13T15:34:10.840Z,85.37
2023-04-13T15:39:13.608Z,85.63
2023-04-13T15:44:16.352Z,88.96
2023-04-13T15:49:20.937Z,86.59
2023-04-13T15:54:23.755Z,82.47
2023-04-13T15:59:26.950Z,85.81
2023-04-13T16:04:32.743Z,100.00
2023-04-13T16:09:36.370Z,100.00
2023-04-13T16:14:42.058Z,100.00
2023-04-13T16:19:47.420Z,100.00
2023-04-13T16:24:50.668Z,99.61
2023-04-13T16:29:53.453Z,100.00
2023-04-13T16:34:57.997Z,100.00
2023-04-13T16:40:00.844Z,100.00
2023-04-13T16:45:04.457Z,100.00
2023-04-13T16:50:10.709Z,100.00
2023-04-13T16:55:15.022Z,78.65
2023-04-13T17:00:18.447Z,96.00
2023-04-13T17:05:27.817Z,100.00
2023-04-13T17:10:34.478Z,100.00
2023-04-13T17:15:37.212Z,100.00
2023-04-13T17:20:41.352Z,100.00
2023-04-13T17:25:46.460Z,100.00
2023-04-13T17:30:50.821Z,100.00
2023-04-13T17:35:55.361Z,100.00
2023-04-13T17:40:59.080Z,100.00
2023-04-13T17:46:02.750Z,100.00
2023-04-13T17:51:11.193Z,100.00
2023-04-13T17:56:15.896Z,100.00
2023-04-13T18:01:18.862Z,100.00
2023-04-13T18:06:23.036Z,100.00
2023-04-13T18:11:27.525Z,100.00
2023-04-13T18:16:31.916Z,100.00
2023-04-13T18:21:37.081Z,100.00
2023-04-13T18:26:43.899Z,100.00
2023-04-13T18:31:46.736Z,100.00
2023-04-13T18:36:51.338Z,100.00
2023-04-13T18:41:54.112Z,100.00
2023-04-13T18:46:57.006Z,100.00
2023-04-13T18:52:01.665Z,100.00
2023-04-13T18:57:04.520Z,100.00
2023-04-13T19:02:09.411Z,100.00
2023-04-13T19:21:02.647Z,100.00
2023-04-13T19:26:08.235Z,100.00
2023-04-13T19:31:11.831Z,100.00
2023-04-13T19:36:14.678Z,100.00
2023-04-13T19:41:20.001Z,100.00
2023-04-13T19:46:23.042Z,100.00
2023-04-13T19:51:27.704Z,100.00
2023-04-13T19:56:34.466Z,100.00
2023-04-13T20:01:40.683Z,100.00
2023-04-13T20:06:43.599Z,100.00
2023-04-13T20:11:48.601Z,100.00
2023-04-13T20:16:51.880Z,100.00
2023-04-13T20:21:55.236Z,100.00
2023-04-13T20:26:59.613Z,100.00
2023-04-13T20:32:02.458Z,100.00
2023-04-13T20:37:09.761Z,100.00
2023-04-13T20:42:13.983Z,100.00
2023-04-13T20:47:17.580Z,100.00
2023-04-13T20:52:23.272Z,100.00
2023-04-13T20:57:27.746Z,100.00
2023-04-13T21:02:31.286Z,100.00
2023-04-13T21:07:34.289Z,100.00
2023-04-13T21:12:38.306Z,100.00
2023-04-13T21:17:41.162Z,100.00
2023-04-13T21:22:43.940Z,100.00
2023-04-13T21:27:48.010Z,100.00
2023-04-13T21:32:51.747Z,100.00
2023-04-13T21:37:54.595Z,100.00
2023-04-13T21:42:58.796Z,100.00
2023-04-13T21:48:01.617Z,100.00
2023-04-13T21:53:04.583Z,100.00
2023-04-13T21:58:08.888Z,100.00
2023-04-13T22:03:13.159Z,100.00
2023-04-13T22:08:16.042Z,100.00
2023-04-13T22:13:20.301Z,100.00
2023-04-13T22:18:24.013Z,100.00
2023-04-13T22:23:27.184Z,100.00
2023-04-13T22:28:32.285Z,100.00
2023-04-13T22:33:36.166Z,100.00
2023-04-13T22:38:38.892Z,100.00
2023-04-13T22:43:43.084Z,100.00
2023-04-13T22:48:45.979Z,100.00
2023-04-13T22:53:48.996Z,100.00
2023-04-13T22:58:53.041Z,100.00
2023-04-13T23:03:56.463Z,100.00
2023-04-13T23:08:59.484Z,100.00
2023-04-13T23:14:03.848Z,100.00
2023-04-13T23:19:06.751Z,100.00
2023-04-13T23:24:09.479Z,100.00
2023-04-13T23:29:13.719Z,100.00
2023-04-13T23:34:16.608Z,100.00
2023-04-13T23:39:22.131Z,100.00
2023-04-13T23:44:26.372Z,100.00
2023-04-13T23:49:29.086Z,100.00
2023-04-13T23:54:32.358Z,100.00
2023-04-13T23:59:36.584Z,100.00
